Time;durP1;ratioP1;P1;durP2;ratioP2;P2;SDS_P1;SDS_P2;PMS_P1;PMS_P2;Temp;Humidity;BMP_temperature;BMP_pressure;BME280_temperature;BME280_humidity;BME280_pressure;Samples;Min_cycle;Max_cycle;Signal;HPM_P1;HPM_P2
2023/01/06 00:01:22;;;;;;;30.58;13.88;;;10.60;99.90;;;;;;5049664;28;20041;-69
2023/01/06 00:03:52;;;;;;;29.38;13.82;;;10.60;99.90;;;;;;5048576;28;20045;-71
2023/01/06 00:06:21;;;;;;;30.48;12.23;;;10.60;99.90;;;;;;5033507;28;20457;-69
2023/01/06 00:08:47;;;;;;;27.63;11.50;;;10.50;99.90;;;;;;5033432;28;20493;-71
2023/01/06 00:11:14;;;;;;;29.83;11.90;;;10.60;99.90;;;;;;5033510;28;20120;-69
2023/01/06 00:13:40;;;;;;;25.90;11.45;;;10.50;99.90;;;;;;5032613;28;20044;-69
2023/01/06 00:16:08;;;;;;;21.80;11.20;;;10.60;99.90;;;;;;5049924;28;20076;-69
2023/01/06 00:18:34;;;;;;;30.45;10.85;;;10.60;99.90;;;;;;5049959;28;20052;-69
2023/01/06 00:21:01;;;;;;;34.08;13.43;;;10.60;99.90;;;;;;5051418;28;20046;-72
2023/01/06 00:23:26;;;;;;;23.33;10.90;;;10.50;99.90;;;;;;5049087;28;20106;-69
2023/01/06 00:25:52;;;;;;;25.17;11.15;;;10.60;99.90;;;;;;5017066;28;20498;-69
2023/01/06 00:28:18;;;;;;;28.05;11.88;;;10.60;99.90;;;;;;5051135;28;20033;-69
2023/01/06 00:30:44;;;;;;;28.80;12.93;;;10.70;99.90;;;;;;5051068;28;20049;-69
2023/01/06 00:33:09;;;;;;;34.75;13.05;;;10.60;99.90;;;;;;5032626;28;20403;-69
2023/01/06 00:35:35;;;;;;;32.15;13.30;;;10.60;99.90;;;;;;5034883;28;20072;-69
2023/01/06 00:38:01;;;;;;;28.85;12.25;;;10.70;99.90;;;;;;5050217;28;20051;-70
2023/01/06 00:40:27;;;;;;;37.28;14.52;;;10.50;99.90;;;;;;5033342;28;20040;-69
2023/01/06 00:42:52;;;;;;;39.15;14.07;;;10.50;99.90;;;;;;5032353;28;20033;-69
2023/01/06 00:45:18;;;;;;;33.67;13.77;;;10.70;99.90;;;;;;5049728;28;20434;-69
2023/01/06 00:47:43;;;;;;;35.42;12.55;;;10.70;99.90;;;;;;5033307;28;20434;-69
2023/01/06 00:50:09;;;;;;;30.10;13.40;;;10.70;99.90;;;;;;5074069;22;20040;-70
2023/01/06 00:52:35;;;;;;;37.10;14.27;;;10.70;99.90;;;;;;5069862;28;20102;-70
2023/01/06 00:55:01;;;;;;;32.45;14.20;;;10.60;99.90;;;;;;5069912;28;20083;-70
2023/01/06 00:57:26;;;;;;;32.80;13.38;;;10.70;99.90;;;;;;5053116;28;20087;-70
2023/01/06 00:59:52;;;;;;;31.52;15.27;;;10.60;99.90;;;;;;5070953;28;20093;-70
2023/01/06 01:02:17;;;;;;;35.22;13.45;;;10.50;99.90;;;;;;5070785;28;20048;-70
2023/01/06 01:04:43;;;;;;;30.55;14.07;;;10.70;99.90;;;;;;5070689;28;20562;-70
2023/01/06 01:07:09;;;;;;;34.75;14.45;;;10.70;99.90;;;;;;5071024;28;20032;-70
2023/01/06 01:09:35;;;;;;;30.77;13.15;;;10.60;99.90;;;;;;5070949;28;20041;-70
2023/01/06 01:12:13;;;;;;;28.80;12.70;;;10.60;99.90;;;;;;5070828;28;20044;-70
2023/01/06 01:14:48;;;;;;;27.30;12.13;;;10.60;99.90;;;;;;5072448;28;20040;-70
2023/01/06 01:17:20;;;;;;;26.85;12.93;;;10.60;99.90;;;;;;5056597;28;20076;-70
2023/01/06 01:19:46;;;;;;;25.20;12.73;;;10.70;99.90;;;;;;5040003;28;20460;-70
2023/01/06 01:22:12;;;;;;;25.33;12.13;;;10.60;99.90;;;;;;5074249;28;20356;-70
2023/01/06 01:24:38;;;;;;;24.23;12.82;;;10.60;99.90;;;;;;5054969;28;20051;-70
2023/01/06 01:27:04;;;;;;;23.02;12.55;;;10.60;99.90;;;;;;5056678;28;20102;-70
2023/01/06 01:29:30;;;;;;;26.83;12.32;;;10.70;99.90;;;;;;5056178;28;20036;-70
2023/01/06 01:31:56;;;;;;;22.05;11.50;;;10.60;99.90;;;;;;5074066;28;20055;-71
2023/01/06 01:34:22;;;;;;;22.77;11.23;;;10.70;99.90;;;;;;5055421;28;20040;-70
2023/01/06 01:36:49;;;;;;;23.02;11.32;;;10.50;99.90;;;;;;5056271;28;20056;-70
2023/01/06 01:39:16;;;;;;;24.55;10.73;;;10.60;99.90;;;;;;5055932;28;20052;-70
2023/01/06 01:41:42;;;;;;;25.27;10.63;;;10.60;99.90;;;;;;5056180;28;20076;-71
2023/01/06 01:44:45;;;;;;;21.52;10.32;;;10.60;99.90;;;;;;5038568;28;20075;-70
2023/01/06 01:47:14;;;;;;;18.77;9.57;;;10.60;99.90;;;;;;5073967;28;20040;-70
2023/01/06 01:49:44;;;;;;;22.98;10.07;;;10.50;99.90;;;;;;5055629;28;20083;-70
2023/01/06 01:52:11;;;;;;;19.67;9.20;;;10.50;99.90;;;;;;5074536;28;20093;-70
2023/01/06 01:54:38;;;;;;;23.65;9.23;;;10.50;99.90;;;;;;5073373;28;20071;-70
2023/01/06 01:57:15;;;;;;;24.38;10.30;;;10.50;99.90;;;;;;5055874;28;20208;-70
2023/01/06 01:59:42;;;;;;;18.15;9.50;;;10.60;99.90;;;;;;5073670;28;20048;-70
2023/01/06 02:02:08;;;;;;;16.15;8.43;;;10.50;99.90;;;;;;5073441;28;20044;-70
2023/01/06 02:04:39;;;;;;;16.67;8.93;;;10.60;99.90;;;;;;5072960;28;20045;-70
2023/01/06 02:07:05;;;;;;;20.27;8.98;;;10.50;99.90;;;;;;5055958;28;20154;-70
2023/01/06 02:09:37;;;;;;;19.75;9.25;;;10.60;99.90;;;;;;5073304;28;20492;-70
2023/01/06 02:12:03;;;;;;;15.85;9.00;;;10.60;99.90;;;;;;5055581;28;20047;-70
2023/01/06 02:14:29;;;;;;;21.58;9.35;;;10.50;99.90;;;;;;5054741;28;20049;-70
2023/01/06 02:17:27;;;;;;;16.52;9.02;;;10.50;99.90;;;;;;5073231;28;20047;-70
2023/01/06 02:20:23;;;;;;;25.95;9.68;;;10.60;99.90;;;;;;5073090;28;20047;-70
2023/01/06 02:23:17;;;;;;;16.83;9.55;;;10.60;99.90;;;;;;5054646;28;20044;-70
2023/01/06 02:26:27;;;;;;;24.85;10.68;;;10.60;99.90;;;;;;5054337;28;20494;-70
2023/01/06 02:29:12;;;;;;;13.55;8.75;;;10.60;99.90;;;;;;5038766;28;20090;-70
2023/01/06 02:32:11;;;;;;;19.10;10.10;;;10.50;99.90;;;;;;5073253;28;20605;-70
2023/01/06 02:34:49;;;;;;;16.88;9.95;;;10.50;99.90;;;;;;5072480;28;20048;-70
2023/01/06 02:37:27;;;;;;;14.90;9.00;;;10.40;99.90;;;;;;5073091;28;20613;-70
2023/01/06 02:39:56;;;;;;;15.43;9.88;;;10.40;99.90;;;;;;5072633;28;20048;-70
2023/01/06 02:42:32;;;;;;;16.05;9.05;;;10.60;99.90;;;;;;5072306;28;20036;-70
2023/01/06 02:45:17;;;;;;;18.25;8.77;;;10.60;99.90;;;;;;5072924;28;20075;-70
2023/01/06 02:47:55;;;;;;;17.80;8.73;;;10.60;99.90;;;;;;5054912;28;20037;-70
2023/01/06 02:50:31;;;;;;;14.75;8.30;;;10.50;99.90;;;;;;5072337;28;20139;-70
2023/01/06 02:53:21;;;;;;;12.35;8.65;;;10.60;99.90;;;;;;5072173;28;20036;-70
2023/01/06 02:55:52;;;;;;;14.35;8.07;;;10.40;99.90;;;;;;5072167;28;20048;-70
2023/01/06 02:58:39;;;;;;;15.02;7.03;;;10.50;99.90;;;;;;5054731;28;20040;-70
2023/01/06 03:01:10;;;;;;;14.35;7.07;;;10.60;99.90;;;;;;5072509;28;20040;-70
2023/01/06 03:03:39;;;;;;;15.15;6.97;;;10.60;99.90;;;;;;5071886;28;20051;-70
2023/01/06 03:06:10;;;;;;;11.32;6.30;;;10.40;99.90;;;;;;5072296;28;20520;-70
2023/01/06 03:08:37;;;;;;;14.10;7.25;;;10.40;99.90;;;;;;5072531;28;20048;-70
2023/01/06 03:11:03;;;;;;;11.10;7.05;;;10.50;99.90;;;;;;5054308;28;20113;-70
2023/01/06 03:13:39;;;;;;;11.90;6.40;;;10.60;99.90;;;;;;5071765;28;20051;-70
2023/01/06 03:16:05;;;;;;;14.77;7.75;;;10.40;99.90;;;;;;5072525;28;20416;-70
2023/01/06 03:18:31;;;;;;;10.10;7.10;;;10.50;99.90;;;;;;5072382;28;20105;-70
2023/01/06 03:21:01;;;;;;;11.50;6.95;;;10.40;99.90;;;;;;5071920;28;20455;-70
2023/01/06 03:23:27;;;;;;;8.77;6.90;;;10.60;99.90;;;;;;5071149;28;20046;-70
2023/01/06 03:25:53;;;;;;;11.82;7.38;;;10.50;99.90;;;;;;5072418;28;20037;-70
2023/01/06 03:28:18;;;;;;;17.20;7.18;;;10.40;99.90;;;;;;5072226;28;20478;-70
2023/01/06 03:31:23;;;;;;;15.45;6.72;;;10.60;99.90;;;;;;5072099;28;20123;-70
2023/01/06 03:34:16;;;;;;;14.00;7.05;;;10.50;99.90;;;;;;5053157;28;20123;-70
2023/01/06 03:37:09;;;;;;;9.73;6.10;;;10.40;99.90;;;;;;5053220;28;20059;-70
2023/01/06 03:39:55;;;;;;;8.57;5.53;;;10.50;99.90;;;;;;5053811;28;20447;-70
2023/01/06 03:46:00;;;;;;;9.95;6.00;;;10.40;99.90;;;;;;5071733;28;20110;-70
2023/01/06 03:48:53;;;;;;;11.02;6.53;;;10.40;99.90;;;;;;5058071;28;20053;-70
2023/01/06 03:51:35;;;;;;;12.33;5.93;;;10.40;99.90;;;;;;5053565;28;20045;-70
2023/01/06 03:54:03;;;;;;;9.93;6.45;;;10.50;99.90;;;;;;5071292;28;20285;-70
2023/01/06 03:56:37;;;;;;;10.10;6.57;;;10.50;99.90;;;;;;5071573;28;20082;-70
2023/01/06 03:59:08;;;;;;;11.23;6.60;;;10.40;99.90;;;;;;5071851;28;20064;-70
2023/01/06 04:01:35;;;;;;;14.70;7.22;;;10.40;99.90;;;;;;5071535;28;20050;-70
2023/01/06 04:04:01;;;;;;;9.73;7.10;;;10.50;99.90;;;;;;5070768;28;20041;-70
2023/01/06 04:06:26;;;;;;;10.45;6.63;;;10.30;99.90;;;;;;5053573;28;20032;-70
2023/01/06 04:08:52;;;;;;;11.30;7.28;;;10.50;99.90;;;;;;5071617;28;20387;-70
2023/01/06 04:14:02;;;;;;;11.73;7.20;;;10.50;99.90;;;;;;5052809;28;20533;-70
2023/01/06 04:16:28;;;;;;;12.75;6.88;;;10.50;99.90;;;;;;5071508;28;20068;-70
2023/01/06 04:18:53;;;;;;;11.52;6.93;;;10.50;99.90;;;;;;5053385;28;20051;-70
2023/01/06 04:21:19;;;;;;;11.80;7.13;;;10.60;99.90;;;;;;5052760;28;20040;-70
2023/01/06 04:23:44;;;;;;;10.32;8.13;;;10.60;99.90;;;;;;5070390;28;20228;-70
2023/01/06 04:26:10;;;;;;;10.90;7.40;;;10.60;99.90;;;;;;5071186;28;20033;-70
2023/01/06 04:28:35;;;;;;;17.20;8.38;;;10.40;99.90;;;;;;5071279;28;20068;-70
2023/01/06 04:31:01;;;;;;;11.38;7.90;;;10.40;99.90;;;;;;5071595;28;20112;-70
2023/01/06 04:33:27;;;;;;;11.07;7.15;;;10.60;99.90;;;;;;5052509;28;20049;-70
2023/01/06 04:35:53;;;;;;;8.70;7.00;;;10.50;99.90;;;;;;5071363;28;20051;-70
2023/01/06 04:38:19;;;;;;;11.63;6.95;;;10.60;99.90;;;;;;5071307;28;20045;-70
2023/01/06 04:40:45;;;;;;;8.02;6.82;;;10.60;99.90;;;;;;5053204;28;20395;-70
2023/01/06 04:43:14;;;;;;;9.48;5.68;;;10.60;99.90;;;;;;5070489;28;20406;-70
2023/01/06 04:45:41;;;;;;;8.65;5.75;;;10.40;99.90;;;;;;5071413;28;20037;-70
2023/01/06 04:48:08;;;;;;;7.10;5.72;;;10.40;99.90;;;;;;5071155;28;20565;-70
2023/01/06 04:50:33;;;;;;;10.27;5.65;;;10.40;99.90;;;;;;5074471;28;20040;-70
2023/01/06 04:52:59;;;;;;;14.25;6.35;;;10.60;99.90;;;;;;5074257;28;20533;-70
2023/01/06 04:55:25;;;;;;;8.05;4.82;;;10.60;99.90;;;;;;5075509;28;20048;-70
2023/01/06 04:57:51;;;;;;;10.32;4.40;;;10.40;99.90;;;;;;5075272;28;20044;-70
2023/01/06 05:00:17;;;;;;;6.45;4.47;;;10.40;99.90;;;;;;5074803;28;20040;-70
2023/01/06 05:02:43;;;;;;;5.38;3.92;;;10.40;99.90;;;;;;5073987;28;20200;-70
2023/01/06 05:05:09;;;;;;;4.88;3.90;;;10.60;99.90;;;;;;5074888;28;20037;-70
2023/01/06 05:07:34;;;;;;;7.80;5.13;;;10.40;99.90;;;;;;5074997;28;20044;-70
2023/01/06 05:10:00;;;;;;;10.93;4.50;;;10.50;99.90;;;;;;5076373;28;20047;-71
2023/01/06 05:12:26;;;;;;;6.65;4.15;;;10.50;99.90;;;;;;5074456;28;20409;-70
2023/01/06 05:14:51;;;;;;;8.55;4.50;;;10.40;99.90;;;;;;5056888;28;20052;-70
2023/01/06 05:17:17;;;;;;;10.38;5.18;;;10.40;99.90;;;;;;5056628;28;20051;-70
2023/01/06 05:19:43;;;;;;;6.88;3.75;;;10.40;99.90;;;;;;5056348;28;20101;-70
2023/01/06 05:22:10;;;;;;;8.07;4.03;;;10.40;99.90;;;;;;5074323;28;20041;-70
2023/01/06 05:24:35;;;;;;;4.95;4.30;;;10.40;99.90;;;;;;5055708;28;20041;-70
2023/01/06 05:27:01;;;;;;;9.13;5.10;;;10.40;99.90;;;;;;5056772;28;20040;-70
2023/01/06 05:29:27;;;;;;;9.57;4.90;;;10.40;99.90;;;;;;5056592;28;20041;-70
2023/01/06 05:31:53;;;;;;;9.05;5.10;;;10.60;99.90;;;;;;5074472;28;20075;-70
2023/01/06 05:34:18;;;;;;;9.00;5.45;;;10.40;99.90;;;;;;5055656;28;20044;-70
2023/01/06 05:36:44;;;;;;;6.18;5.18;;;10.60;99.90;;;;;;5056216;28;20051;-70
2023/01/06 05:39:09;;;;;;;7.22;5.63;;;10.40;99.90;;;;;;5056402;28;20040;-70
2023/01/06 05:41:35;;;;;;;7.43;6.30;;;10.40;99.90;;;;;;5074349;28;20045;-70
2023/01/06 05:44:00;;;;;;;8.80;6.53;;;10.50;99.90;;;;;;5055274;28;20045;-70
2023/01/06 05:46:26;;;;;;;13.43;7.45;;;10.60;99.90;;;;;;5074037;28;20072;-70
2023/01/06 05:48:51;;;;;;;10.18;7.32;;;10.60;99.90;;;;;;5073941;28;20036;-70
2023/01/06 05:51:17;;;;;;;11.27;7.15;;;10.40;99.90;;;;;;5073620;28;20047;-70
2023/01/06 05:53:45;;;;;;;12.52;7.35;;;10.40;99.90;;;;;;5073520;28;20040;-70
2023/01/06 05:56:14;;;;;;;13.23;8.07;;;10.40;99.90;;;;;;5073973;28;20087;-70
2023/01/06 05:58:43;;;;;;;12.13;7.30;;;10.50;99.90;;;;;;5073956;28;20044;-70
2023/01/06 06:01:19;;;;;;;11.18;7.72;;;10.40;99.90;;;;;;5073457;28;20081;-70
2023/01/06 06:03:45;;;;;;;10.18;7.30;;;10.40;99.90;;;;;;5054971;28;20045;-70
2023/01/06 06:06:10;;;;;;;11.60;8.32;;;10.50;99.90;;;;;;5055559;28;20044;-70
2023/01/06 06:08:36;;;;;;;10.13;7.15;;;10.50;99.90;;;;;;5055888;28;20071;-70
2023/01/06 06:11:03;;;;;;;8.32;7.45;;;10.40;99.90;;;;;;5055325;28;20075;-70
2023/01/06 06:13:28;;;;;;;11.20;7.93;;;10.30;99.90;;;;;;5072806;28;20044;-70
2023/01/06 06:16:08;;;;;;;9.63;7.57;;;10.40;99.90;;;;;;5055705;28;20036;-70
2023/01/06 06:18:41;;;;;;;10.25;7.40;;;10.30;99.90;;;;;;5073341;28;20048;-70
2023/01/06 06:21:08;;;;;;;11.60;7.60;;;10.50;99.90;;;;;;5073308;28;20063;-70
2023/01/06 06:23:34;;;;;;;10.55;8.13;;;10.30;99.90;;;;;;5054579;28;20036;-70
2023/01/06 06:26:00;;;;;;;12.00;8.05;;;10.30;99.90;;;;;;5073193;28;20068;-70
2023/01/06 06:28:28;;;;;;;11.77;8.05;;;10.20;99.90;;;;;;5055175;28;20068;-70
2023/01/06 06:30:54;;;;;;;9.43;7.68;;;10.40;99.90;;;;;;5054801;28;20040;-70
2023/01/06 06:33:19;;;;;;;12.35;7.88;;;10.20;99.90;;;;;;5072719;28;20036;-70
2023/01/06 06:35:55;;;;;;;12.52;8.18;;;10.30;99.90;;;;;;5055161;28;20128;-70
2023/01/06 06:38:20;;;;;;;9.15;7.90;;;10.40;99.90;;;;;;5073272;28;20033;-70
2023/01/06 06:40:46;;;;;;;10.40;9.27;;;10.20;99.90;;;;;;5072585;28;20123;-70
2023/01/06 06:43:12;;;;;;;11.23;8.38;;;10.40;99.90;;;;;;5071986;28;20033;-70
2023/01/06 06:45:37;;;;;;;12.75;9.50;;;10.40;99.90;;;;;;5054836;28;20086;-70
2023/01/06 06:48:03;;;;;;;15.02;10.13;;;10.20;99.90;;;;;;5072810;28;20522;-70
2023/01/06 06:50:29;;;;;;;13.90;10.02;;;10.40;99.90;;;;;;5065693;22;20045;-71
2023/01/06 06:52:54;;;;;;;13.18;10.73;;;10.20;99.90;;;;;;5030204;28;20530;-71
2023/01/06 06:55:20;;;;;;;12.85;10.15;;;10.30;99.90;;;;;;5032428;28;20042;-71
2023/01/06 06:57:45;;;;;;;10.85;9.55;;;10.40;99.90;;;;;;5032785;28;20458;-71
2023/01/06 07:00:12;;;;;;;11.90;10.60;;;10.20;99.90;;;;;;5032489;28;20515;-71
2023/01/06 07:02:38;;;;;;;16.90;10.70;;;10.20;99.90;;;;;;5030644;28;20054;-71
2023/01/06 07:05:04;;;;;;;13.60;10.52;;;10.10;99.90;;;;;;5031288;28;20073;-71
2023/01/06 07:07:29;;;;;;;12.98;9.95;;;10.10;99.90;;;;;;5031753;28;20247;-71
2023/01/06 07:09:55;;;;;;;13.73;11.15;;;10.10;99.90;;;;;;5031243;28;20037;-71
2023/01/06 07:12:20;;;;;;;16.05;10.40;;;10.10;99.90;;;;;;5031452;28;20041;-71
2023/01/06 07:14:46;;;;;;;17.10;10.55;;;10.40;99.90;;;;;;5030888;28;20041;-71
2023/01/06 07:17:11;;;;;;;13.90;10.48;;;10.10;99.90;;;;;;5032381;28;20068;-71
2023/01/06 07:19:37;;;;;;;14.02;9.68;;;10.10;99.90;;;;;;5030673;28;20110;-71
2023/01/06 07:22:02;;;;;;;13.40;9.90;;;10.30;99.90;;;;;;5031704;28;20037;-70
2023/01/06 07:24:28;;;;;;;13.40;10.10;;;10.10;99.90;;;;;;5031355;28;20156;-70
2023/01/06 07:26:53;;;;;;;12.23;9.45;;;10.40;99.90;;;;;;5032111;28;20116;-70
2023/01/06 07:29:19;;;;;;;11.65;8.60;;;10.00;99.90;;;;;;5030722;28;20116;-71
2023/01/06 07:31:44;;;;;;;11.35;8.40;;;10.20;99.90;;;;;;5030612;28;20491;-71
2023/01/06 07:34:10;;;;;;;11.70;8.48;;;10.00;99.90;;;;;;5029587;28;20099;-71
2023/01/06 07:36:35;;;;;;;9.32;7.75;;;10.00;99.90;;;;;;5030586;28;20068;-71
2023/01/06 07:39:01;;;;;;;11.52;7.65;;;10.10;99.90;;;;;;5030424;28;20132;-71
2023/01/06 07:41:26;;;;;;;7.85;6.13;;;10.10;99.90;;;;;;5030600;28;20060;-71
2023/01/06 07:43:52;;;;;;;8.90;6.88;;;10.10;99.90;;;;;;5029599;28;20116;-71
2023/01/06 07:46:17;;;;;;;8.50;6.10;;;10.20;99.90;;;;;;5031881;28;20033;-71
2023/01/06 07:48:43;;;;;;;8.68;5.55;;;10.00;99.90;;;;;;5030353;28;20041;-71
2023/01/06 07:51:08;;;;;;;6.15;5.15;;;10.30;99.90;;;;;;5031513;28;20412;-71
2023/01/06 07:53:34;;;;;;;6.32;4.47;;;10.20;99.90;;;;;;5013440;28;20100;-71
2023/01/06 07:56:00;;;;;;;7.13;4.20;;;10.40;99.90;;;;;;5031283;28;20073;-70
2023/01/06 07:58:25;;;;;;;3.63;3.10;;;10.10;99.90;;;;;;5031653;28;20470;-71
2023/01/06 08:00:51;;;;;;;3.70;2.80;;;10.40;99.90;;;;;;5031581;28;20044;-71
2023/01/06 08:03:17;;;;;;;6.35;2.88;;;10.40;99.90;;;;;;5029637;28;20041;-71
2023/01/06 08:05:42;;;;;;;3.42;2.33;;;10.50;99.90;;;;;;5028747;28;20041;-71
2023/01/06 08:08:09;;;;;;;4.90;2.00;;;10.40;99.90;;;;;;5031388;28;20033;-71
2023/01/06 08:10:38;;;;;;;2.00;1.33;;;10.30;99.90;;;;;;5020059;28;20034;-71
2023/01/06 08:13:04;;;;;;;3.88;1.00;;;10.30;99.90;;;;;;5009699;28;20121;-70
2023/01/06 08:15:30;;;;;;;4.43;1.58;;;10.20;99.90;;;;;;5010371;28;20129;-70
2023/01/06 08:17:55;;;;;;;3.00;0.93;;;10.00;99.90;;;;;;4994301;28;20045;-71
2023/01/06 08:20:21;;;;;;;3.58;0.88;;;10.00;99.90;;;;;;5010609;28;20073;-71
2023/01/06 08:22:47;;;;;;;3.40;0.80;;;9.90;99.90;;;;;;5009575;28;20038;-71
2023/01/06 08:25:13;;;;;;;3.08;0.82;;;9.80;99.90;;;;;;5009449;28;20092;-71
2023/01/06 08:27:38;;;;;;;3.17;1.40;;;9.80;99.90;;;;;;5011261;28;20117;-71
2023/01/06 08:30:05;;;;;;;3.33;1.00;;;9.70;99.90;;;;;;5011159;28;20146;-71
2023/01/06 08:32:30;;;;;;;4.50;1.38;;;9.70;99.90;;;;;;5009288;28;20070;-70
2023/01/06 08:34:56;;;;;;;2.83;0.88;;;9.70;99.90;;;;;;5010009;28;20077;-71
2023/01/06 08:37:21;;;;;;;3.92;0.57;;;9.60;99.90;;;;;;5016480;28;20435;-70
2023/01/06 08:39:47;;;;;;;4.68;0.80;;;9.60;99.90;;;;;;5020265;28;20519;-70
2023/01/06 08:42:13;;;;;;;2.08;0.50;;;9.60;99.90;;;;;;5012726;28;20065;-71
2023/01/06 08:44:39;;;;;;;2.97;0.70;;;9.50;99.90;;;;;;4993814;28;20038;-71
2023/01/06 08:47:04;;;;;;;4.68;0.95;;;9.40;99.90;;;;;;5007639;28;20521;-71
2023/01/06 08:49:30;;;;;;;5.47;0.73;;;9.40;99.90;;;;;;5013221;28;20046;-71
2023/01/06 08:51:55;;;;;;;8.70;1.33;;;9.40;99.90;;;;;;5030897;28;20040;-71
2023/01/06 08:54:21;;;;;;;3.58;1.10;;;9.40;99.90;;;;;;5012317;28;20064;-70
2023/01/06 08:56:46;;;;;;;4.25;0.60;;;9.30;99.90;;;;;;5029691;28;20048;-71
2023/01/06 08:59:15;;;;;;;3.67;0.65;;;9.30;99.90;;;;;;5029906;28;20041;-70
2023/01/06 09:01:41;;;;;;;5.65;0.70;;;9.30;99.90;;;;;;5029666;28;20048;-70
2023/01/06 09:04:08;;;;;;;3.67;0.93;;;9.30;99.90;;;;;;5025161;28;20041;-70
2023/01/06 09:06:34;;;;;;;7.05;0.95;;;9.30;99.90;;;;;;4987666;28;20026;-70
2023/01/06 09:09:01;;;;;;;5.30;2.05;;;9.30;99.90;;;;;;5019454;28;20488;-71
2023/01/06 09:11:26;;;;;;;3.13;0.80;;;9.20;99.90;;;;;;5019549;28;20415;-71
2023/01/06 09:13:52;;;;;;;5.97;0.88;;;9.30;99.90;;;;;;5013934;28;20037;-71
2023/01/06 09:16:19;;;;;;;5.88;1.35;;;9.30;99.90;;;;;;4993821;28;20502;-71
2023/01/06 09:18:48;;;;;;;7.05;0.90;;;9.30;99.90;;;;;;5009431;28;20068;-71
2023/01/06 09:21:21;;;;;;;7.82;1.35;;;9.10;99.90;;;;;;5009633;28;20125;-71
2023/01/06 09:23:47;;;;;;;;;;;9.10;99.90;;;;;;5009327;28;20038;-71
2023/01/06 09:26:14;;;;;;;8.20;1.23;;;9.10;99.90;;;;;;5009770;28;20294;-71
2023/01/06 09:28:40;;;;;;;6.82;0.90;;;9.10;99.90;;;;;;5009890;28;20486;-71
2023/01/06 09:31:06;;;;;;;5.00;2.22;;;9.20;99.90;;;;;;4993129;28;20118;-71
2023/01/06 09:33:32;;;;;;;9.13;1.75;;;9.10;99.90;;;;;;4992521;28;20038;-71
2023/01/06 09:35:58;;;;;;;2.70;0.95;;;9.20;99.90;;;;;;5011496;28;20124;-70
2023/01/06 09:38:25;;;;;;;9.25;2.13;;;9.20;99.90;;;;;;5010504;28;20540;-71
2023/01/06 09:41:30;;;;;;;7.13;1.35;;;9.10;99.90;;;;;;5023903;28;20149;-72
2023/01/06 09:44:13;;;;;;;4.22;1.05;;;9.20;99.90;;;;;;5031609;28;20069;-71
2023/01/06 09:46:40;;;;;;;;;;;9.20;99.90;;;;;;5038461;28;20065;-70
2023/01/06 09:49:05;;;;;;;10.45;1.63;;;9.10;99.90;;;;;;5032736;28;20376;-71
2023/01/06 09:51:32;;;;;;;8.32;1.30;;;9.10;99.90;;;;;;5031963;28;20095;-71
2023/01/06 09:54:12;;;;;;;9.90;1.20;;;9.10;99.90;;;;;;5031543;28;20042;-71
2023/01/06 09:56:41;;;;;;;9.40;1.85;;;9.20;99.90;;;;;;5032702;28;20444;-71
2023/01/06 09:59:15;;;;;;;8.55;2.03;;;9.20;99.90;;;;;;5032225;28;20037;-72
2023/01/06 10:01:46;;;;;;;6.00;1.42;;;9.20;99.90;;;;;;5032151;28;20084;-71
2023/01/06 10:04:29;;;;;;;7.28;1.45;;;9.20;99.90;;;;;;5031478;28;20128;-71
2023/01/06 10:07:04;;;;;;;12.55;1.73;;;9.40;99.90;;;;;;5032117;28;20387;-71
2023/01/06 10:09:42;;;;;;;11.30;1.63;;;9.30;99.90;;;;;;5033254;28;20041;-70
2023/01/06 10:12:21;;;;;;;11.00;2.15;;;9.40;99.90;;;;;;5032178;28;20045;-71
2023/01/06 10:14:52;;;;;;;18.98;3.53;;;9.60;99.90;;;;;;5032611;28;20124;-71
2023/01/06 10:17:23;;;;;;;14.18;2.20;;;9.60;99.90;;;;;;5032223;28;20041;-70
2023/01/06 10:19:49;;;;;;;9.55;1.80;;;9.70;99.90;;;;;;5032408;28;20084;-70
2023/01/06 10:22:46;;;;;;;10.18;1.73;;;9.50;99.90;;;;;;5028450;28;20069;-69
2023/01/06 10:25:31;;;;;;;12.65;3.22;;;9.70;99.90;;;;;;5021967;28;20081;-68
2023/01/06 10:28:18;;;;;;;23.30;3.08;;;9.60;99.90;;;;;;5019773;28;20041;-68
2023/01/06 10:30:50;;;;;;;6.63;1.80;;;9.60;99.90;;;;;;5011629;28;20440;-68
2023/01/06 10:33:24;;;;;;;13.50;2.03;;;9.60;99.90;;;;;;4994730;28;20137;-69
2023/01/06 10:35:54;;;;;;;6.80;1.70;;;9.50;99.90;;;;;;5015753;28;20120;-68
2023/01/06 10:38:28;;;;;;;8.52;1.60;;;9.70;99.90;;;;;;5021502;28;20038;-68
2023/01/06 10:41:00;;;;;;;9.63;1.63;;;9.50;99.90;;;;;;5029242;28;20088;-69
2023/01/06 10:43:25;;;;;;;8.15;1.52;;;9.60;99.90;;;;;;5032128;28;20037;-68
2023/01/06 10:45:52;;;;;;;12.70;1.90;;;9.60;99.90;;;;;;5033018;28;20553;-68
2023/01/06 10:48:24;;;;;;;9.35;1.67;;;9.50;99.90;;;;;;5030705;28;20404;-68
2023/01/06 10:50:49;;;;;;;11.70;1.75;;;9.60;99.90;;;;;;5032301;28;20038;-69
2023/01/06 10:53:15;;;;;;;7.57;1.60;;;9.50;99.90;;;;;;5030463;28;20052;-69
2023/01/06 10:55:53;;;;;;;10.38;1.67;;;9.60;99.90;;;;;;5031258;28;20033;-69
2023/01/06 10:58:39;;;;;;;7.10;1.67;;;9.50;99.90;;;;;;5031336;28;20384;-69
2023/01/06 11:01:10;;;;;;;6.63;1.73;;;9.70;99.90;;;;;;5032327;28;20124;-69
2023/01/06 11:03:37;;;;;;;6.05;1.48;;;9.60;99.90;;;;;;5030640;28;20493;-69
2023/01/06 11:06:22;;;;;;;6.80;1.60;;;9.60;99.90;;;;;;5031169;28;20491;-69
2023/01/06 11:08:48;;;;;;;10.60;1.45;;;9.60;99.90;;;;;;5031202;28;20037;-69
2023/01/06 11:11:15;;;;;;;9.25;1.98;;;9.70;99.90;;;;;;5014787;28;20088;-69
2023/01/06 11:13:48;;;;;;;9.20;1.90;;;9.60;99.90;;;;;;5030342;28;20084;-69
2023/01/06 11:16:20;;;;;;;9.85;2.00;;;9.60;99.90;;;;;;5030933;28;20053;-69
2023/01/06 11:18:52;;;;;;;7.88;1.70;;;9.60;99.90;;;;;;5031004;28;20081;-69
2023/01/06 11:21:18;;;;;;;10.75;2.75;;;9.60;99.90;;;;;;5030819;28;20040;-69
2023/01/06 11:23:46;;;;;;;16.38;1.80;;;9.70;99.90;;;;;;5029939;28;20087;-69
2023/01/06 11:26:19;;;;;;;8.10;1.70;;;9.70;99.90;;;;;;5030844;28;20099;-69
2023/01/06 11:28:47;;;;;;;6.38;1.67;;;9.50;99.90;;;;;;5030536;28;20037;-71
2023/01/06 11:31:12;;;;;;;13.85;3.03;;;9.60;99.90;;;;;;5030035;28;20041;-71
2023/01/06 11:33:49;;;;;;;6.95;1.90;;;9.60;99.90;;;;;;5030105;28;20625;-71
2023/01/06 11:36:16;;;;;;;12.50;2.58;;;9.60;99.90;;;;;;5012246;28;20072;-71
2023/01/06 11:38:58;;;;;;;7.70;2.72;;;9.60;99.90;;;;;;5029985;28;20053;-71
2023/01/06 11:41:35;;;;;;;6.38;1.50;;;9.60;99.90;;;;;;5029208;28;20045;-71
2023/01/06 11:44:11;;;;;;;12.05;1.80;;;9.60;99.90;;;;;;5012270;28;20128;-71
2023/01/06 11:46:44;;;;;;;14.25;1.83;;;9.60;99.90;;;;;;5031787;28;20072;-70
2023/01/06 11:49:17;;;;;;;11.68;2.00;;;9.60;99.90;;;;;;5031467;28;20434;-69
2023/01/06 11:51:45;;;;;;;10.85;2.25;;;9.80;99.90;;;;;;5030931;28;20048;-69
2023/01/06 11:54:38;;;;;;;8.23;2.28;;;9.80;99.90;;;;;;5030369;28;20103;-69
2023/01/06 11:57:24;;;;;;;11.95;2.83;;;9.80;99.90;;;;;;5029899;28;20056;-69
2023/01/06 12:00:24;;;;;;;9.23;2.13;;;9.80;99.90;;;;;;5028957;28;20041;-69
2023/01/06 12:03:29;;;;;;;9.45;2.30;;;9.80;99.90;;;;;;5028962;28;20041;-69
2023/01/06 12:06:13;;;;;;;12.48;1.77;;;9.80;99.90;;;;;;5029002;28;20103;-69
2023/01/06 12:08:52;;;;;;;10.05;1.50;;;9.90;99.90;;;;;;5030949;28;20071;-69
2023/01/06 12:11:50;;;;;;;9.52;2.13;;;9.80;99.90;;;;;;5029909;28;20042;-69
2023/01/06 12:14:21;;;;;;;8.73;1.75;;;9.90;99.90;;;;;;5023083;28;20522;-69
2023/01/06 12:16:52;;;;;;;11.82;2.28;;;9.80;99.90;;;;;;5025876;28;20501;-69
2023/01/06 12:19:25;;;;;;;15.35;2.47;;;9.80;99.90;;;;;;5018658;28;20037;-70
2023/01/06 12:21:52;;;;;;;5.82;1.70;;;9.80;99.90;;;;;;5021488;28;20041;-70
2023/01/06 12:24:20;;;;;;;11.23;2.10;;;9.80;99.90;;;;;;5021921;28;20045;-69
2023/01/06 12:26:46;;;;;;;8.55;1.95;;;9.70;99.90;;;;;;5024724;28;20038;-70
2023/01/06 12:29:19;;;;;;;10.23;1.60;;;9.70;99.90;;;;;;5012049;28;20042;-70
2023/01/06 12:32:11;;;;;;;3.88;1.50;;;9.70;99.90;;;;;;5017470;28;20054;-70
2023/01/06 12:34:46;;;;;;;9.40;2.40;;;9.70;99.90;;;;;;5018957;28;20042;-70
2023/01/06 12:37:35;;;;;;;5.82;1.77;;;9.70;99.90;;;;;;5025771;28;20045;-70
2023/01/06 12:40:19;;;;;;;10.38;2.58;;;9.70;99.90;;;;;;5029987;28;20056;-70
2023/01/06 12:42:57;;;;;;;8.35;2.05;;;9.70;99.90;;;;;;5028899;28;20042;-70
2023/01/06 12:45:53;;;;;;;6.55;1.70;;;9.70;99.90;;;;;;5019806;28;20395;-70
2023/01/06 12:48:34;;;;;;;12.93;2.47;;;9.70;99.90;;;;;;5027012;28;20041;-70
2023/01/06 12:51:10;;;;;;;10.07;2.95;;;9.70;99.90;;;;;;5028659;28;20056;-70
2023/01/06 12:53:40;;;;;;;9.45;2.35;;;9.70;99.90;;;;;;5029239;28;20029;-69
2023/01/06 12:56:57;;;;;;;13.68;2.75;;;9.60;99.90;;;;;;5049488;22;20048;-72
2023/01/06 12:59:39;;;;;;;12.23;2.55;;;9.70;99.90;;;;;;5011698;28;20049;-73
2023/01/06 13:02:20;;;;;;;10.05;1.90;;;9.60;99.90;;;;;;5030860;28;20077;-72
2023/01/06 13:05:05;;;;;;;9.88;2.40;;;9.80;99.90;;;;;;5029457;28;20050;-72
2023/01/06 13:07:41;;;;;;;12.10;2.83;;;9.80;99.90;;;;;;4998590;28;20404;-73